createdAt,value
2022-11-15T00:01:10.847Z,22.52
2022-11-15T00:03:38.014Z,22.75
2022-11-15T00:06:05.611Z,22.70
2022-11-15T00:08:33.520Z,22.45
2022-11-15T00:11:01.542Z,21.52
2022-11-15T00:13:29.339Z,21.33
2022-11-15T00:16:00.339Z,21.05
2022-11-15T00:18:27.878Z,20.38
2022-11-15T00:20:55.108Z,21.20
2022-11-15T00:23:22.510Z,20.23
2022-11-15T00:25:56.578Z,20.27
2022-11-15T00:28:23.790Z,19.55
2022-11-15T00:30:50.930Z,21.98
2022-11-15T00:33:18.282Z,21.02
2022-11-15T00:35:45.485Z,20.23
2022-11-15T00:38:12.635Z,20.88
2022-11-15T00:40:39.776Z,21.52
2022-11-15T00:43:06.957Z,21.52
2022-11-15T00:45:34.112Z,20.40
2022-11-15T00:48:01.262Z,21.27
2022-11-15T00:50:28.481Z,20.75
2022-11-15T00:52:55.640Z,20.92
2022-11-15T00:55:22.865Z,20.67
2022-11-15T00:57:50.076Z,20.73
2022-11-15T01:00:17.439Z,19.77
2022-11-15T01:02:44.555Z,19.92
2022-11-15T01:05:11.734Z,19.30
2022-11-15T01:07:38.951Z,19.17
2022-11-15T01:10:06.375Z,20.17
2022-11-15T01:12:33.646Z,20.00
2022-11-15T01:15:00.857Z,21.63
2022-11-15T01:17:28.261Z,19.27
2022-11-15T01:19:55.442Z,20.40
2022-11-15T01:22:22.617Z,19.33
2022-11-15T01:24:51.744Z,19.95
2022-11-15T01:27:18.928Z,19.70
2022-11-15T01:29:46.065Z,19.73
2022-11-15T01:32:13.161Z,20.27
2022-11-15T01:34:40.275Z,19.00
2022-11-15T01:37:07.393Z,19.05
2022-11-15T01:39:34.580Z,19.17
2022-11-15T01:42:01.877Z,18.98
2022-11-15T01:44:47.999Z,18.60
2022-11-15T01:47:17.430Z,18.42
2022-11-15T01:49:51.267Z,20.15
2022-11-15T01:52:20.504Z,18.08
2022-11-15T01:54:48.587Z,17.23
2022-11-15T01:57:15.753Z,17.15
2022-11-15T01:59:44.935Z,19.55
2022-11-15T02:02:12.363Z,17.70
2022-11-15T02:04:42.370Z,18.83
2022-11-15T02:07:10.672Z,17.75
2022-11-15T02:09:39.070Z,19.17
2022-11-15T02:12:07.256Z,17.92
2022-11-15T02:14:34.814Z,18.23
2022-11-15T02:17:01.950Z,18.17
2022-11-15T02:19:35.235Z,18.50
2022-11-15T02:22:11.179Z,17.52
2022-11-15T02:24:54.070Z,18.27
2022-11-15T02:27:27.066Z,17.20
2022-11-15T02:30:12.840Z,17.90
2022-11-15T02:32:47.467Z,19.80
2022-11-15T02:35:22.851Z,18.00
2022-11-15T02:38:01.270Z,17.38
2022-11-15T02:40:28.997Z,18.10
2022-11-15T02:43:17.852Z,16.00
2022-11-15T02:45:50.344Z,16.98
2022-11-15T02:48:18.555Z,17.02
2022-11-15T02:50:45.757Z,17.30
2022-11-15T02:53:12.876Z,16.83
2022-11-15T02:55:42.574Z,16.17
2022-11-15T02:58:09.661Z,16.88
2022-11-15T03:00:37.630Z,17.45
2022-11-15T03:03:16.750Z,16.98
2022-11-15T03:06:13.051Z,16.77
2022-11-15T03:08:55.745Z,17.15
2022-11-15T03:11:23.944Z,16.40
2022-11-15T03:14:00.003Z,16.38
2022-11-15T03:16:32.919Z,16.02
2022-11-15T03:19:08.637Z,16.70
2022-11-15T03:21:36.601Z,16.17
2022-11-15T03:24:05.733Z,16.23
2022-11-15T03:26:34.473Z,16.83
2022-11-15T03:29:13.565Z,16.85
2022-11-15T03:31:51.126Z,17.40
2022-11-15T03:34:38.942Z,16.83
2022-11-15T03:37:06.875Z,17.10
2022-11-15T03:39:34.577Z,17.15
2022-11-15T03:42:11.111Z,17.00
2022-11-15T03:44:53.318Z,16.40
2022-11-15T03:47:23.380Z,16.30
2022-11-15T03:49:55.164Z,16.38
2022-11-15T03:52:22.953Z,16.55
2022-11-15T03:54:55.736Z,16.30
2022-11-15T03:57:23.318Z,16.80
2022-11-15T03:59:50.575Z,15.23
2022-11-15T04:02:18.439Z,16.77
2022-11-15T04:04:45.835Z,16.60
2022-11-15T04:07:15.961Z,16.42
2022-11-15T04:10:01.886Z,15.75
2022-11-15T04:12:32.180Z,16.05
2022-11-15T04:15:09.910Z,16.23
2022-11-15T04:17:47.974Z,15.57
2022-11-15T04:20:33.877Z,16.45
2022-11-15T04:23:20.606Z,16.05
2022-11-15T04:25:49.274Z,16.48
2022-11-15T04:28:16.440Z,16.42
2022-11-15T04:30:43.557Z,16.23
2022-11-15T04:33:10.691Z,15.85
2022-11-15T04:35:37.796Z,16.75
2022-11-15T04:38:06.218Z,15.63
2022-11-15T04:40:33.540Z,15.50
2022-11-15T04:43:03.955Z,15.73
2022-11-15T04:45:31.638Z,16.55
2022-11-15T04:47:58.748Z,15.88
2022-11-15T04:50:25.949Z,15.40
2022-11-15T04:52:54.260Z,15.63
2022-11-15T04:55:21.907Z,15.85
2022-11-15T04:57:49.084Z,16.55
2022-11-15T05:00:18.283Z,16.27
2022-11-15T05:03:04.246Z,15.65
2022-11-15T05:05:31.490Z,15.10
2022-11-15T05:07:58.641Z,15.25
2022-11-15T05:10:25.749Z,15.38
2022-11-15T05:12:52.867Z,15.43
2022-11-15T05:15:20.044Z,15.95
2022-11-15T05:17:47.224Z,16.48
2022-11-15T05:20:14.548Z,15.60
2022-11-15T05:22:41.975Z,16.27
2022-11-15T05:25:09.397Z,16.05
2022-11-15T05:27:36.753Z,16.13
2022-11-15T05:30:03.951Z,15.93
2022-11-15T05:32:31.310Z,15.40
2022-11-15T05:34:58.545Z,16.00
2022-11-15T05:37:25.735Z,15.95
2022-11-15T05:39:52.852Z,16.23
2022-11-15T05:42:20.620Z,16.42
2022-11-15T05:44:49.785Z,14.60
2022-11-15T05:47:19.291Z,15.27
2022-11-15T05:49:47.052Z,15.77
2022-11-15T05:52:15.558Z,15.23
2022-11-15T05:54:42.792Z,15.93
2022-11-15T05:57:10.030Z,16.08
2022-11-15T05:59:37.510Z,14.68
2022-11-15T06:02:04.703Z,14.63
2022-11-15T06:04:31.992Z,15.95
2022-11-15T06:07:00.085Z,15.05
2022-11-15T06:09:27.360Z,15.80
2022-11-15T06:11:54.511Z,15.00
2022-11-15T06:14:21.669Z,15.48
2022-11-15T06:16:48.847Z,14.32
2022-11-15T06:19:16.069Z,15.38
2022-11-15T06:21:43.237Z,16.38
2022-11-15T06:24:10.515Z,16.38
2022-11-15T06:26:37.694Z,16.20
2022-11-15T06:29:05.489Z,15.93
2022-11-15T06:31:32.706Z,16.55
2022-11-15T06:33:59.904Z,15.93
2022-11-15T06:36:27.077Z,16.08
2022-11-15T06:38:54.373Z,16.85
2022-11-15T06:41:22.220Z,16.35
2022-11-15T06:43:49.395Z,17.90
2022-11-15T06:46:16.535Z,17.27
2022-11-15T06:48:43.740Z,18.17
2022-11-15T06:51:11.186Z,17.67
2022-11-15T06:53:38.361Z,17.30
2022-11-15T06:56:06.725Z,16.95
2022-11-15T06:58:34.033Z,15.65
2022-11-15T07:01:02.364Z,17.33
2022-11-15T07:03:30.052Z,17.50
2022-11-15T07:06:01.552Z,17.50
2022-11-15T07:08:32.861Z,18.40
2022-11-15T07:11:01.592Z,18.85
2022-11-15T07:13:29.659Z,17.02
2022-11-15T07:15:57.105Z,17.33
2022-11-15T07:18:24.318Z,17.02
2022-11-15T07:20:51.462Z,16.77
2022-11-15T07:23:18.734Z,17.75
2022-11-15T07:25:46.041Z,16.45
2022-11-15T07:28:14.372Z,17.70
2022-11-15T07:30:45.182Z,16.88
2022-11-15T07:33:12.768Z,18.08
2022-11-15T07:35:39.921Z,18.75
2022-11-15T07:38:07.109Z,16.45
2022-11-15T07:40:34.257Z,14.93
2022-11-15T07:43:02.442Z,15.82
2022-11-15T07:45:29.841Z,15.55
2022-11-15T07:47:57.403Z,14.85
2022-11-15T07:50:25.276Z,15.07
2022-11-15T07:52:56.436Z,16.88
2022-11-15T07:55:28.011Z,17.35
2022-11-15T07:57:55.260Z,17.20
2022-11-15T08:00:22.433Z,16.45
2022-11-15T08:02:49.952Z,15.55
2022-11-15T08:05:17.151Z,16.45
2022-11-15T08:07:44.323Z,15.45
2022-11-15T08:10:12.913Z,16.13
2022-11-15T08:12:40.120Z,15.43
2022-11-15T08:15:07.576Z,15.77
2022-11-15T08:17:34.935Z,15.20
2022-11-15T08:20:02.135Z,15.98
2022-11-15T08:22:29.336Z,15.50
2022-11-15T08:24:56.535Z,15.18
2022-11-15T08:27:23.739Z,14.55
2022-11-15T08:29:53.393Z,13.50
2022-11-15T08:32:25.150Z,15.57
2022-11-15T08:34:52.341Z,14.98
2022-11-15T08:37:19.557Z,15.35
2022-11-15T08:39:46.672Z,15.38
2022-11-15T08:42:19.760Z,16.90
2022-11-15T08:44:47.478Z,18.20
2022-11-15T08:47:14.968Z,17.83
2022-11-15T08:49:42.159Z,17.60
2022-11-15T08:52:09.301Z,17.92
2022-11-15T08:54:36.476Z,17.25
2022-11-15T08:57:03.670Z,19.10
2022-11-15T08:59:30.839Z,16.98
2022-11-15T09:01:58.006Z,15.80
2022-11-15T09:04:25.692Z,16.83
2022-11-15T09:06:52.917Z,16.35
2022-11-15T09:09:20.064Z,16.95
2022-11-15T09:11:47.749Z,16.05
2022-11-15T09:14:15.336Z,17.05
2022-11-15T09:16:42.500Z,16.17
2022-11-15T09:19:11.807Z,17.42
2022-11-15T09:21:39.250Z,17.02
2022-11-15T09:24:06.568Z,16.52
2022-11-15T09:26:33.742Z,16.95
2022-11-15T09:29:02.241Z,15.02
2022-11-15T09:31:30.525Z,16.52
2022-11-15T09:33:57.663Z,15.95
2022-11-15T09:36:25.058Z,15.23
2022-11-15T09:38:52.200Z,15.82
2022-11-15T09:41:31.544Z,14.98
2022-11-15T09:44:07.790Z,13.82
2022-11-15T09:46:34.940Z,15.25
2022-11-15T09:49:05.797Z,15.13
2022-11-15T09:51:37.452Z,16.80
2022-11-15T09:56:58.612Z,14.65
2022-11-15T09:59:44.051Z,15.52
2022-11-15T10:02:18.640Z,15.10
2022-11-15T10:04:45.984Z,15.52
2022-11-15T10:07:29.211Z,15.23
2022-11-15T10:09:58.821Z,15.05
2022-11-15T10:12:26.972Z,13.13
2022-11-15T10:15:02.215Z,14.52
2022-11-15T10:17:39.977Z,31.50
2022-11-15T10:20:19.575Z,24.42
2022-11-15T10:22:48.588Z,22.75
2022-11-15T10:25:21.853Z,23.50
2022-11-15T10:28:00.351Z,23.20
2022-11-15T10:30:47.787Z,23.70
2022-11-15T10:33:27.524Z,21.48
2022-11-15T10:36:26.100Z,22.35
2022-11-15T10:38:56.272Z,23.50
2022-11-15T10:41:38.133Z,23.48
2022-11-15T10:44:23.868Z,21.40
2022-11-15T10:47:06.068Z,20.85
2022-11-15T10:49:34.227Z,22.88
2022-11-15T10:52:14.235Z,22.85
2022-11-15T10:54:44.070Z,23.88
2022-11-15T10:57:16.670Z,22.33
2022-11-15T10:59:48.394Z,21.33
2022-11-15T11:02:28.002Z,22.23
2022-11-15T11:04:55.217Z,20.40
2022-11-15T11:07:24.462Z,21.67
2022-11-15T11:10:02.046Z,21.20
2022-11-15T11:12:31.220Z,20.35
2022-11-15T11:14:58.942Z,18.90
2022-11-15T11:17:27.342Z,19.98
2022-11-15T11:19:58.966Z,20.65
2022-11-15T11:22:44.962Z,19.83
2022-11-15T11:25:18.160Z,21.00
2022-11-15T11:27:52.162Z,17.10
2022-11-15T11:30:29.882Z,18.30
2022-11-15T11:33:12.650Z,16.77
2022-11-15T11:35:48.716Z,18.33
2022-11-15T11:38:21.627Z,17.40
2022-11-15T11:41:07.609Z,17.13
2022-11-15T11:43:34.719Z,17.15
2022-11-15T11:46:20.646Z,17.45
2022-11-15T11:48:54.773Z,18.48
2022-11-15T11:51:30.482Z,18.00
2022-11-15T11:54:05.584Z,16.85
2022-11-15T11:56:36.645Z,17.27
2022-11-15T11:59:29.847Z,18.30
2022-11-15T12:01:57.358Z,17.45
2022-11-15T12:04:31.668Z,17.98
2022-11-15T12:07:04.466Z,15.55
2022-11-15T12:10:01.502Z,17.60
2022-11-15T12:12:36.926Z,15.27
2022-11-15T12:15:22.831Z,15.88
2022-11-15T12:17:50.183Z,16.15
2022-11-15T12:20:19.781Z,16.08
2022-11-15T12:22:55.129Z,16.05
2022-11-15T12:25:42.531Z,15.70
2022-11-15T12:28:26.344Z,16.33
2022-11-15T12:30:58.109Z,15.38
2022-11-15T12:33:45.452Z,15.07
2022-11-15T12:36:24.852Z,15.00
2022-11-15T12:38:55.317Z,13.43
2022-11-15T12:41:23.455Z,13.77
2022-11-15T12:43:50.765Z,14.30
2022-11-15T12:46:21.926Z,14.85
2022-11-15T12:48:53.744Z,15.90
2022-11-15T12:51:44.039Z,16.25
2022-11-15T12:54:23.283Z,17.60
2022-11-15T12:57:08.408Z,17.42
2022-11-15T12:59:49.636Z,18.90
2022-11-15T13:02:25.898Z,19.80
2022-11-15T13:04:54.456Z,21.73
2022-11-15T13:07:56.805Z,21.50
2022-11-15T13:10:28.151Z,22.05
2022-11-15T13:12:59.645Z,21.92
2022-11-15T13:15:39.650Z,23.52
2022-11-15T13:18:25.138Z,25.25
2022-11-15T13:20:52.296Z,43.40
2022-11-15T13:23:19.402Z,41.22
2022-11-15T13:25:47.271Z,48.83
2022-11-15T13:28:17.567Z,46.25
2022-11-15T13:30:55.271Z,43.60
2022-11-15T13:33:30.396Z,42.97
2022-11-15T13:36:01.681Z,42.47
2022-11-15T13:38:32.540Z,41.60
2022-11-15T13:41:00.685Z,41.58
2022-11-15T13:43:30.528Z,43.13
2022-11-15T13:46:06.749Z,43.20
2022-11-15T13:48:34.963Z,40.20
2022-11-15T13:51:07.088Z,40.78
2022-11-15T13:53:35.449Z,41.47
2022-11-15T13:56:04.577Z,39.58
2022-11-15T13:58:32.295Z,39.08
2022-11-15T14:01:02.113Z,41.75
2022-11-15T14:03:30.873Z,39.80
2022-11-15T14:06:13.006Z,40.63
2022-11-15T14:08:40.951Z,40.30
2022-11-15T14:11:14.492Z,38.67
2022-11-15T14:13:42.030Z,37.95
2022-11-15T14:16:16.612Z,38.03
2022-11-15T14:18:48.515Z,37.80
2022-11-15T14:21:15.814Z,35.35
2022-11-15T14:23:43.458Z,35.78
2022-11-15T14:26:28.055Z,33.38
2022-11-15T14:28:55.188Z,33.90
2022-11-15T14:31:22.936Z,31.50
2022-11-15T14:33:50.120Z,31.33
2022-11-15T14:36:18.453Z,31.80
2022-11-15T14:38:45.629Z,30.45
2022-11-15T14:41:23.289Z,28.88
2022-11-15T14:43:51.091Z,29.67
2022-11-15T14:46:18.454Z,29.33
2022-11-15T14:48:45.615Z,29.48
2022-11-15T14:51:13.742Z,27.40
2022-11-15T14:53:43.404Z,25.67
2022-11-15T14:56:11.030Z,25.15
2022-11-15T14:58:38.190Z,24.40
2022-11-15T15:01:13.914Z,23.13
2022-11-15T15:03:41.561Z,24.95
2022-11-15T15:06:15.076Z,25.70
2022-11-15T15:08:44.842Z,25.02
2022-11-15T15:11:17.973Z,23.08
2022-11-15T15:13:45.102Z,22.70
2022-11-15T15:16:12.269Z,23.02
2022-11-15T15:18:39.481Z,23.42
2022-11-15T15:21:15.126Z,21.63
2022-11-15T15:23:42.278Z,20.55
2022-11-15T15:26:10.217Z,23.20
2022-11-15T15:28:39.703Z,20.05
2022-11-15T15:31:07.898Z,20.85
2022-11-15T15:33:35.121Z,22.63
2022-11-15T15:36:02.560Z,19.88
2022-11-15T15:38:30.147Z,21.00
2022-11-15T15:40:57.497Z,21.25
2022-11-15T15:43:24.675Z,19.42
2022-11-15T15:45:54.537Z,18.67
2022-11-15T15:48:21.672Z,19.02
2022-11-15T15:50:50.223Z,19.40
2022-11-15T15:53:18.304Z,21.20
2022-11-15T15:55:45.713Z,20.10
2022-11-15T15:58:12.997Z,21.10
2022-11-15T16:00:40.202Z,20.35
2022-11-15T16:03:07.459Z,19.48
2022-11-15T16:05:34.740Z,18.83
2022-11-15T16:08:01.940Z,19.25
2022-11-15T16:10:30.365Z,18.58
2022-11-15T16:12:58.646Z,20.92
2022-11-15T16:15:26.720Z,19.33
2022-11-15T16:17:55.404Z,19.10
2022-11-15T16:20:43.420Z,16.90
2022-11-15T16:23:11.433Z,18.75
2022-11-15T16:25:49.424Z,18.70
2022-11-15T16:28:19.732Z,18.67
2022-11-15T16:30:49.029Z,18.70
2022-11-15T16:33:21.258Z,18.35
2022-11-15T16:35:48.930Z,18.77
2022-11-15T16:38:16.880Z,18.48
2022-11-15T16:40:44.514Z,18.30
2022-11-15T16:43:11.957Z,19.33
2022-11-15T16:45:39.224Z,17.95
2022-11-15T16:48:06.461Z,15.52
2022-11-15T16:50:41.101Z,16.65
2022-11-15T16:53:08.304Z,16.50
2022-11-15T16:55:35.417Z,17.50
2022-11-15T16:58:02.662Z,16.48
2022-11-15T17:00:29.923Z,16.48
2022-11-15T17:02:57.309Z,17.80
2022-11-15T17:05:27.327Z,18.20
2022-11-15T17:07:54.451Z,18.35
2022-11-15T17:10:25.472Z,16.83
2022-11-15T17:12:53.231Z,16.98
2022-11-15T17:15:20.650Z,16.85
2022-11-15T17:17:52.751Z,17.33
2022-11-15T17:20:20.407Z,16.60
2022-11-15T17:22:47.639Z,16.95
2022-11-15T17:25:14.914Z,15.80
2022-11-15T17:27:42.080Z,15.25
2022-11-15T17:30:09.435Z,16.38
2022-11-15T17:32:37.533Z,17.95
2022-11-15T17:35:12.063Z,16.35
2022-11-15T17:37:42.140Z,16.13
2022-11-15T17:40:09.610Z,17.98
2022-11-15T17:42:36.752Z,16.38
2022-11-15T17:45:09.353Z,16.00
2022-11-15T17:47:36.987Z,17.25
2022-11-15T17:50:04.219Z,17.38
2022-11-15T17:52:31.682Z,15.32
2022-11-15T17:54:58.872Z,16.58
2022-11-15T17:57:26.064Z,17.67
2022-11-15T17:59:53.349Z,15.48
2022-11-15T18:02:20.677Z,16.55
2022-11-15T18:04:47.967Z,16.98
2022-11-15T18:07:15.202Z,17.60
2022-11-15T18:09:44.631Z,15.90
2022-11-15T18:12:12.421Z,16.48
2022-11-15T18:14:39.946Z,16.25
2022-11-15T18:17:07.086Z,15.60
2022-11-15T18:19:34.692Z,15.82
2022-11-15T18:22:04.427Z,20.77
2022-11-15T18:24:31.636Z,20.35
2022-11-15T18:26:59.484Z,20.25
2022-11-15T18:29:26.852Z,20.42
2022-11-15T18:31:57.497Z,20.23
2022-11-15T18:34:25.544Z,19.15
2022-11-15T18:36:53.334Z,18.88
2022-11-15T18:39:20.739Z,18.52
2022-11-15T18:41:48.275Z,18.52
2022-11-15T18:44:15.915Z,20.77
2022-11-15T18:46:44.904Z,21.73
2022-11-15T18:49:13.161Z,19.85
2022-11-15T18:51:43.519Z,19.63
2022-11-15T18:54:11.908Z,20.17
2022-11-15T18:56:39.208Z,18.05
2022-11-15T18:59:06.687Z,19.10
2022-11-15T19:01:35.262Z,19.30
2022-11-15T19:04:09.834Z,17.48
2022-11-15T19:06:38.816Z,18.27
2022-11-15T19:09:05.966Z,17.92
2022-11-15T19:11:35.722Z,18.52
2022-11-15T19:14:04.815Z,16.58
2022-11-15T19:16:33.394Z,17.17
2022-11-15T19:19:01.905Z,18.45
2022-11-15T19:21:30.924Z,18.05
2022-11-15T19:23:58.271Z,17.13
2022-11-15T19:26:25.581Z,18.10
2022-11-15T19:28:53.684Z,17.10
2022-11-15T19:31:23.294Z,18.10
2022-11-15T19:33:51.094Z,17.15
2022-11-15T19:36:19.916Z,17.67
2022-11-15T19:38:47.449Z,16.75
2022-11-15T19:41:15.782Z,15.63
2022-11-15T19:43:42.903Z,16.77
2022-11-15T19:46:13.196Z,15.60
2022-11-15T19:48:40.676Z,15.52
2022-11-15T19:51:08.834Z,15.27
2022-11-15T19:53:36.226Z,15.35
2022-11-15T19:56:04.869Z,14.10
2022-11-15T19:58:33.869Z,14.70
2022-11-15T20:01:03.055Z,16.08
2022-11-15T20:03:31.473Z,15.15
2022-11-15T20:06:06.003Z,15.45
2022-11-15T20:08:34.186Z,15.15
2022-11-15T20:11:01.673Z,14.00
2022-11-15T20:13:28.838Z,16.25
2022-11-15T20:15:56.608Z,14.98
2022-11-15T20:18:24.273Z,14.55
2022-11-15T20:20:51.861Z,14.45
2022-11-15T20:23:19.468Z,15.90
2022-11-15T20:25:47.484Z,16.55
2022-11-15T20:28:22.096Z,15.57
2022-11-15T20:30:51.654Z,16.98
2022-11-15T20:33:19.154Z,17.50
2022-11-15T20:35:46.358Z,19.92
2022-11-15T20:38:13.524Z,19.60
2022-11-15T20:40:41.044Z,19.55
2022-11-15T20:43:12.137Z,18.42
2022-11-15T20:45:39.770Z,18.00
2022-11-15T20:48:07.230Z,17.73
2022-11-15T20:50:43.255Z,16.75
2022-11-15T20:53:11.562Z,17.17
2022-11-15T20:55:42.349Z,15.13
2022-11-15T20:58:10.100Z,16.33
2022-11-15T21:00:37.449Z,14.20
2022-11-15T21:03:08.285Z,15.45
2022-11-15T21:05:36.299Z,16.60
2022-11-15T21:08:03.491Z,14.60
2022-11-15T21:10:49.535Z,15.55
2022-11-15T21:13:16.695Z,16.10
2022-11-15T21:15:43.877Z,13.20
2022-11-15T21:18:11.112Z,15.32
2022-11-15T21:20:38.388Z,39.10
2022-11-15T21:23:05.598Z,38.72
2022-11-15T21:25:33.877Z,34.08
2022-11-15T21:28:01.084Z,34.25
2022-11-15T21:30:29.952Z,34.45
2022-11-15T21:32:57.175Z,33.70
2022-11-15T21:35:24.480Z,32.88
2022-11-15T21:37:56.486Z,30.88
2022-11-15T21:40:25.082Z,30.75
2022-11-15T21:42:52.258Z,31.90
2022-11-15T21:45:19.386Z,30.00
2022-11-15T21:47:46.903Z,27.52
2022-11-15T21:50:14.476Z,27.98
2022-11-15T21:52:41.748Z,28.52
2022-11-15T21:55:09.397Z,28.10
2022-11-15T21:57:36.574Z,28.67
2022-11-15T22:00:23.054Z,28.05
2022-11-15T22:02:50.331Z,28.05
2022-11-15T22:05:17.884Z,27.27
2022-11-15T22:07:45.053Z,27.30
2022-11-15T22:10:12.247Z,25.45
2022-11-15T22:12:39.385Z,28.17
2022-11-15T22:15:06.718Z,25.98
2022-11-15T22:17:52.646Z,25.02
2022-11-15T22:23:07.019Z,26.67
2022-11-15T22:25:34.151Z,24.10
2022-11-15T22:28:01.316Z,23.52
2022-11-15T22:30:28.481Z,24.88
2022-11-15T22:32:55.587Z,24.75
2022-11-15T22:35:22.787Z,24.02
2022-11-15T22:37:49.899Z,23.80
2022-11-15T22:40:17.503Z,23.60
2022-11-15T22:42:44.736Z,23.65
2022-11-15T22:45:11.885Z,22.58
2022-11-15T22:47:39.064Z,23.42
2022-11-15T22:50:06.521Z,23.20
2022-11-15T22:52:33.908Z,22.38
2022-11-15T22:55:01.067Z,22.25
2022-11-15T22:57:28.308Z,22.40
2022-11-15T22:59:55.484Z,21.08
2022-11-15T23:02:22.729Z,22.02
2022-11-15T23:04:49.933Z,22.63
2022-11-15T23:07:17.090Z,22.10
2022-11-15T23:09:46.520Z,24.33
2022-11-15T23:12:36.628Z,21.98
2022-11-15T23:15:03.848Z,21.83
2022-11-15T23:17:32.689Z,23.30
2022-11-15T23:20:11.200Z,23.52
2022-11-15T23:22:49.845Z,22.35
2022-11-15T23:25:16.976Z,21.70
2022-11-15T23:27:44.091Z,21.80
2022-11-15T23:30:30.011Z,20.88
2022-11-15T23:33:16.135Z,20.45
2022-11-15T23:35:43.382Z,20.88
2022-11-15T23:38:10.603Z,21.15
2022-11-15T23:40:37.759Z,19.90
2022-11-15T23:43:04.946Z,20.10
2022-11-15T23:45:32.220Z,19.88
2022-11-15T23:48:01.507Z,22.20
2022-11-15T23:50:29.055Z,21.67
2022-11-15T23:52:56.174Z,19.13
2022-11-15T23:55:23.382Z,18.40
2022-11-15T23:57:50.616Z,21.35
